createdAt,value
2023-05-24T04:31:33.161Z,20.4116
2023-05-24T04:32:35.000Z,20.5069
2023-05-24T04:33:37.036Z,20.7856
2023-05-24T04:34:39.164Z,21.0604
2023-05-24T04:35:41.114Z,21.3581
2023-05-24T04:36:43.148Z,21.5805
2023-05-24T04:37:45.217Z,21.8753
2023-05-24T04:38:47.278Z,22.0220
2023-05-24T04:39:49.379Z,22.2311
2023-05-24T04:40:51.345Z,22.3841
2023-05-24T04:41:53.407Z,22.5102
2023-05-24T04:42:55.420Z,22.6413
2023-05-24T04:43:57.449Z,22.7565
2023-05-24T04:44:59.514Z,22.8736
2023-05-24T04:46:01.559Z,22.9703
2023-05-24T04:47:03.687Z,23.0153
2023-05-24T04:48:05.696Z,23.1285
2023-05-24T04:49:07.673Z,23.1998
2023-05-24T04:50:09.761Z,23.3074
2023-05-24T04:51:11.781Z,23.3986
2023-05-24T04:52:13.838Z,23.4251
2023-05-24T04:53:15.871Z,23.4438
2023-05-24T04:54:17.914Z,23.5034
2023-05-24T04:55:19.949Z,23.5338
2023-05-24T04:56:21.989Z,23.5734
2023-05-24T04:57:24.035Z,23.6815
2023-05-24T04:58:26.087Z,23.6817
2023-05-24T04:59:28.111Z,23.6915
2023-05-24T05:00:30.174Z,23.6930
2023-05-24T05:01:32.222Z,23.7404
2023-05-24T05:02:34.301Z,23.7488
2023-05-24T05:03:36.412Z,23.7883
2023-05-24T05:04:38.326Z,23.8314
2023-05-24T05:05:40.376Z,23.8413
2023-05-24T05:06:42.442Z,23.8431
2023-05-24T05:07:44.496Z,23.8692
2023-05-24T05:08:46.519Z,23.8633
2023-05-24T05:09:48.588Z,23.9150
2023-05-24T05:10:50.633Z,23.9267
2023-05-24T05:11:52.672Z,23.9298
2023-05-24T05:12:54.706Z,23.9152
2023-05-24T05:13:56.798Z,23.9183
2023-05-24T05:14:58.796Z,23.9089
2023-05-24T05:16:00.882Z,23.8965
2023-05-24T05:17:02.912Z,23.9313
2023-05-24T05:18:04.991Z,23.9315
2023-05-24T05:19:07.007Z,23.9391
2023-05-24T05:20:09.133Z,23.9224
2023-05-24T05:21:11.070Z,23.9619
2023-05-24T05:22:13.114Z,23.9810
2023-05-24T05:23:15.287Z,23.9580
2023-05-24T05:24:17.243Z,23.9904
2023-05-24T05:25:19.277Z,23.9855
2023-05-24T05:26:21.313Z,23.9582
2023-05-24T05:27:23.355Z,23.9335
2023-05-24T05:28:25.398Z,23.9600
2023-05-24T05:29:27.424Z,23.9313
2023-05-24T05:30:29.513Z,23.9325
2023-05-24T05:31:31.538Z,23.9331
2023-05-24T05:32:33.633Z,23.9596
2023-05-24T05:33:35.643Z,23.9649
2023-05-24T05:34:37.671Z,23.9744
2023-05-24T05:35:39.718Z,23.9773
2023-05-24T05:36:41.754Z,23.9578
2023-05-24T05:37:43.852Z,23.9310
2023-05-24T05:38:45.830Z,23.9183
2023-05-24T05:39:47.913Z,23.9191
2023-05-24T05:40:49.949Z,23.9557
2023-05-24T05:41:51.987Z,23.9931
2023-05-24T05:42:54.025Z,24.0013
2023-05-24T05:43:56.347Z,23.9582
2023-05-24T05:44:58.166Z,23.9836
2023-05-24T05:46:00.230Z,24.0089
2023-05-24T05:47:02.254Z,24.0588
2023-05-24T05:48:04.334Z,24.0835
2023-05-24T05:49:06.398Z,24.1352
2023-05-24T05:50:08.406Z,24.1475
2023-05-24T05:51:10.450Z,24.1556
2023-05-24T05:52:12.482Z,24.1884
2023-05-24T05:53:14.523Z,24.2782
2023-05-24T05:54:16.601Z,24.2675
2023-05-24T05:55:18.594Z,24.2509
2023-05-24T05:56:20.647Z,24.2007
2023-05-24T05:57:22.753Z,24.2636
2023-05-24T05:58:24.757Z,24.2673
2023-05-24T05:59:26.804Z,24.4320
2023-05-24T06:00:28.957Z,24.3636
2023-05-24T06:01:30.866Z,24.3643
2023-05-24T06:02:32.970Z,24.4421
2023-05-24T06:03:35.200Z,24.4419
2023-05-24T06:04:37.059Z,24.3137
2023-05-24T06:05:39.063Z,24.2375
2023-05-24T06:06:41.154Z,24.2377
2023-05-24T06:07:43.165Z,24.1576
2023-05-24T06:08:45.282Z,24.1796
2023-05-24T06:09:47.310Z,24.2127
2023-05-24T06:10:52.039Z,24.2971
2023-05-24T06:11:51.389Z,24.2657
2023-05-24T06:12:53.473Z,24.2408
2023-05-24T06:13:55.457Z,24.2291
2023-05-24T06:14:57.561Z,24.1890
2023-05-24T06:15:59.566Z,24.1619
2023-05-24T06:17:01.690Z,24.1806
2023-05-24T06:18:03.819Z,24.1334
2023-05-24T06:19:06.603Z,24.1260
2023-05-24T06:20:07.764Z,24.0789
2023-05-24T06:21:09.807Z,24.1323
2023-05-24T06:22:11.807Z,24.1334
2023-05-24T06:23:14.016Z,24.0613
2023-05-24T06:24:15.901Z,24.0416
2023-05-24T06:25:18.008Z,24.0911
2023-05-24T06:26:20.002Z,24.0974
2023-05-24T06:27:22.151Z,23.9882
2023-05-24T06:28:24.080Z,23.9972
2023-05-24T06:29:26.154Z,23.9760
2023-05-24T06:30:28.385Z,23.9156
2023-05-24T06:31:30.221Z,23.9156
2023-05-24T06:32:32.380Z,23.9224
2023-05-24T06:33:35.766Z,23.9380
2023-05-24T06:34:36.371Z,23.9054
2023-05-24T06:35:38.413Z,23.9082
2023-05-24T06:36:40.465Z,23.8828
2023-05-24T06:37:42.497Z,23.9179
2023-05-24T06:38:44.514Z,23.9009
2023-05-24T06:39:46.626Z,23.9456
2023-05-24T06:40:48.605Z,23.9347
2023-05-24T06:41:50.659Z,23.9175
2023-05-24T06:42:52.736Z,23.9434
2023-05-24T06:43:54.772Z,24.0200
2023-05-24T06:44:56.841Z,24.0370
2023-05-24T06:45:58.884Z,24.0865
2023-05-24T06:47:01.007Z,24.0997
2023-05-24T06:48:05.024Z,24.0305
2023-05-24T06:49:05.054Z,24.0670
2023-05-24T06:50:07.033Z,24.1459
2023-05-24T06:51:09.091Z,24.0175
2023-05-24T06:52:11.130Z,24.0744
2023-05-24T06:53:13.236Z,24.0066
2023-05-24T06:54:15.243Z,23.9269
2023-05-24T06:55:17.254Z,23.9485
2023-05-24T06:56:19.322Z,23.9773
2023-05-24T06:57:21.355Z,23.9621
2023-05-24T06:58:23.392Z,24.0144
2023-05-24T06:59:25.473Z,24.1297
2023-05-24T07:00:27.583Z,24.0736
2023-05-24T07:01:29.671Z,23.9750
2023-05-24T07:02:31.622Z,23.9247
2023-05-24T07:03:33.642Z,23.9820
2023-05-24T07:04:37.532Z,23.9251
2023-05-24T07:05:37.719Z,23.9121
2023-05-24T07:06:39.829Z,23.9559
2023-05-24T07:07:41.817Z,23.9643
2023-05-24T07:08:43.833Z,23.9734
2023-05-24T07:09:45.896Z,24.0319
2023-05-24T07:10:48.119Z,24.0352
2023-05-24T07:11:50.020Z,24.0416
2023-05-24T07:12:52.016Z,24.0574
2023-05-24T07:13:54.076Z,24.0391
2023-05-24T07:14:56.120Z,24.0781
2023-05-24T07:15:58.158Z,24.1395
2023-05-24T07:17:00.340Z,24.1276
2023-05-24T07:18:02.342Z,23.9801
2023-05-24T07:19:04.949Z,23.9382
2023-05-24T07:20:06.359Z,23.9933
2023-05-24T07:21:08.404Z,23.9584
2023-05-24T07:22:10.496Z,23.9462
2023-05-24T07:23:12.552Z,23.9460
2023-05-24T07:24:16.229Z,23.9362
2023-05-24T07:25:16.581Z,23.9179
2023-05-24T07:26:18.644Z,23.9298
2023-05-24T07:27:20.650Z,23.9633
2023-05-24T07:28:22.741Z,23.9442
2023-05-24T07:29:24.981Z,23.9801
2023-05-24T07:30:32.301Z,23.9569
2023-05-24T07:31:28.870Z,24.0142
2023-05-24T07:32:30.990Z,24.0253
2023-05-24T07:33:33.040Z,24.0013
2023-05-24T07:34:35.027Z,24.0225
2023-05-24T07:35:37.087Z,24.0520
2023-05-24T07:36:39.301Z,24.0570
2023-05-24T07:37:41.228Z,24.0188
2023-05-24T07:38:43.328Z,24.0222
2023-05-24T07:39:45.224Z,23.9906
2023-05-24T07:40:47.340Z,23.9906
2023-05-24T07:41:49.330Z,24.0058
2023-05-24T07:42:51.416Z,23.9584
2023-05-24T07:43:53.478Z,23.9304
2023-05-24T07:44:55.549Z,23.9608
2023-05-24T07:45:57.522Z,23.9376
2023-05-24T07:46:59.731Z,23.9571
2023-05-24T07:48:01.861Z,23.9836
2023-05-24T07:49:03.673Z,24.0188
2023-05-24T07:50:06.065Z,24.0711
2023-05-24T07:51:08.059Z,24.0520
2023-05-24T07:52:09.784Z,24.1106
2023-05-24T07:53:11.853Z,24.1465
2023-05-24T07:54:13.894Z,24.0401
2023-05-24T07:55:15.940Z,23.9953
2023-05-24T07:56:17.953Z,24.0163
2023-05-24T07:57:20.035Z,24.0976
2023-05-24T07:58:22.093Z,24.0190
2023-05-24T07:59:24.106Z,24.0403
2023-05-24T08:00:26.259Z,24.0475
2023-05-24T08:01:28.213Z,24.0607
2023-05-24T08:02:30.439Z,23.9863
2023-05-24T08:03:32.379Z,23.9939
2023-05-24T08:04:34.367Z,23.9964
2023-05-24T08:05:36.562Z,23.9910
2023-05-24T08:06:38.496Z,23.9752
2023-05-24T08:07:40.469Z,24.0455
2023-05-24T08:08:42.555Z,24.0500
2023-05-24T08:09:44.651Z,24.0305
2023-05-24T08:10:46.604Z,24.0344
2023-05-24T08:11:48.664Z,24.0151
2023-05-24T08:12:50.667Z,24.0816
2023-05-24T08:13:52.721Z,24.0179
2023-05-24T08:14:55.272Z,24.0547
2023-05-24T08:15:56.879Z,24.0190
2023-05-24T08:16:58.887Z,23.9608
2023-05-24T08:18:00.973Z,24.0233
2023-05-24T08:19:03.017Z,24.0311
2023-05-24T08:20:05.084Z,24.1100
2023-05-24T08:21:07.035Z,24.0785
2023-05-24T08:22:09.239Z,24.1169
2023-05-24T08:23:11.351Z,24.1391
2023-05-24T08:24:13.186Z,23.9413
2023-05-24T08:25:16.974Z,23.7938
2023-05-24T08:26:17.486Z,23.6363
2023-05-24T08:27:19.314Z,23.6817
2023-05-24T08:28:21.484Z,23.5599
2023-05-24T08:29:23.423Z,23.4537
2023-05-24T08:30:25.734Z,23.4233
2023-05-24T08:31:27.564Z,23.4095
2023-05-24T08:32:29.587Z,23.3939
2023-05-24T08:33:31.630Z,23.4153
2023-05-24T08:34:33.747Z,23.5186
2023-05-24T08:35:35.776Z,23.5178
2023-05-24T08:36:37.831Z,23.6030
2023-05-24T08:37:39.955Z,23.6786
2023-05-24T08:38:41.927Z,23.7669
2023-05-24T08:39:44.120Z,23.7827
2023-05-24T08:40:46.076Z,23.7511
2023-05-24T08:42:01.026Z,23.6985
2023-05-24T08:42:50.151Z,23.7174
2023-05-24T08:43:52.185Z,23.8359
2023-05-24T08:44:54.205Z,23.8850
2023-05-24T08:45:56.282Z,23.8807
2023-05-24T08:46:58.369Z,23.8744
2023-05-24T08:48:00.463Z,23.8842
2023-05-24T08:49:02.548Z,23.8984
2023-05-24T08:50:04.499Z,23.8838
2023-05-24T08:51:06.630Z,23.9413
2023-05-24T08:52:08.642Z,23.9711
2023-05-24T08:53:10.573Z,23.9719
2023-05-24T08:54:12.662Z,23.9808
2023-05-24T08:55:14.680Z,24.0418
2023-05-24T08:56:16.780Z,24.0473
2023-05-24T08:57:18.756Z,24.0789
2023-05-24T08:58:20.838Z,24.1254
2023-05-24T08:59:22.856Z,24.1176
2023-05-24T09:00:24.931Z,24.0473
2023-05-24T09:01:28.953Z,24.0522
2023-05-24T09:02:29.007Z,23.9972
2023-05-24T09:03:31.148Z,23.9639
2023-05-24T09:04:33.109Z,23.9582
2023-05-24T09:05:35.168Z,23.9471
2023-05-24T09:06:37.191Z,23.9641
2023-05-24T09:07:39.259Z,24.0070
2023-05-24T09:08:43.628Z,23.9384
2023-05-24T09:09:43.323Z,23.9662
2023-05-24T09:10:54.554Z,23.8770
2023-05-24T09:11:47.423Z,23.9041
2023-05-24T09:12:49.470Z,23.9165
2023-05-24T09:13:51.488Z,23.9150
2023-05-24T09:14:53.621Z,23.8789
2023-05-24T09:15:55.661Z,23.8090
2023-05-24T09:16:57.665Z,23.8014
2023-05-24T09:17:59.702Z,23.8045
2023-05-24T09:19:01.747Z,23.8312
2023-05-24T09:20:03.856Z,23.8530
2023-05-24T09:21:05.866Z,23.7293
2023-05-24T09:22:08.202Z,23.7558
2023-05-24T09:23:10.032Z,23.7675
2023-05-24T09:24:11.995Z,23.8082
2023-05-24T09:25:14.083Z,23.8507
2023-05-24T09:26:16.120Z,23.8442
2023-05-24T09:27:18.122Z,23.8783
2023-05-24T09:28:20.167Z,23.8955
2023-05-24T09:29:22.359Z,23.8857
2023-05-24T09:30:24.279Z,23.8392
2023-05-24T09:31:26.344Z,23.7501
2023-05-24T09:32:28.437Z,23.7404
2023-05-24T09:33:30.393Z,23.7988
2023-05-24T09:34:32.407Z,23.8637
2023-05-24T09:35:34.645Z,23.9475
2023-05-24T09:36:36.545Z,23.9362
2023-05-24T09:37:38.757Z,23.9592
2023-05-24T09:38:40.691Z,23.9754
2023-05-24T09:39:42.701Z,23.9329
2023-05-24T09:40:44.727Z,23.9547
2023-05-24T09:41:46.910Z,23.9389
2023-05-24T09:42:49.834Z,23.9421
2023-05-24T09:43:50.896Z,23.9232
2023-05-24T09:44:53.184Z,23.8694
2023-05-24T09:45:54.960Z,23.8850
2023-05-24T09:46:57.027Z,23.9382
2023-05-24T09:47:59.137Z,24.0091
2023-05-24T09:49:01.081Z,23.9444
2023-05-24T09:50:03.165Z,23.8530
2023-05-24T09:51:05.196Z,23.9097
2023-05-24T09:52:07.305Z,23.8935
2023-05-24T09:53:09.289Z,23.9177
2023-05-24T09:54:11.296Z,23.9329
2023-05-24T09:55:13.366Z,23.9345
2023-05-24T09:56:15.430Z,23.9232
2023-05-24T09:57:17.427Z,23.9119
2023-05-24T09:58:19.484Z,23.9066
2023-05-24T09:59:21.553Z,23.9727
2023-05-24T10:00:23.658Z,23.9101
2023-05-24T10:01:25.688Z,23.8583
2023-05-24T10:02:31.369Z,23.9333
2023-05-24T10:03:29.864Z,23.9487
2023-05-24T10:04:31.861Z,23.8684
2023-05-24T10:05:33.938Z,23.8366
2023-05-24T10:06:35.871Z,23.8440
2023-05-24T10:07:37.903Z,23.9212
2023-05-24T10:08:40.046Z,23.9403
2023-05-24T10:09:42.022Z,23.9742
2023-05-24T10:10:44.456Z,23.9163
2023-05-24T10:11:46.275Z,23.9130
2023-05-24T10:12:48.322Z,23.8676
2023-05-24T10:13:50.214Z,23.9204
2023-05-24T10:14:52.330Z,23.9267
2023-05-24T10:15:54.407Z,23.9633
2023-05-24T10:16:56.389Z,23.9391
2023-05-24T10:17:58.583Z,23.9333
2023-05-24T10:19:00.447Z,23.8943
2023-05-24T10:20:02.556Z,23.8789
2023-05-24T10:21:04.762Z,23.8791
2023-05-24T10:22:06.592Z,23.8873
2023-05-24T10:23:08.628Z,23.8978
2023-05-24T10:24:10.733Z,23.8458
2023-05-24T10:25:12.835Z,23.8125
2023-05-24T10:26:14.833Z,23.8526
2023-05-24T10:27:16.967Z,23.8101
2023-05-24T10:28:18.923Z,23.8902
2023-05-24T10:29:20.938Z,23.8193
2023-05-24T10:30:23.005Z,23.8370
2023-05-24T10:31:25.127Z,23.8211
2023-05-24T10:32:27.203Z,23.6977
2023-05-24T10:33:29.166Z,23.5554
2023-05-24T10:34:31.232Z,23.5369
2023-05-24T10:35:33.246Z,23.5260
2023-05-24T10:36:35.308Z,23.7456
2023-05-24T10:37:38.010Z,23.7677
2023-05-24T10:38:39.434Z,23.7057
2023-05-24T10:39:41.475Z,23.6630
2023-05-24T10:40:43.503Z,23.6722
2023-05-24T10:41:45.608Z,23.5554
2023-05-24T10:42:47.685Z,23.6511
2023-05-24T10:44:07.301Z,23.7248
2023-05-24T10:44:51.743Z,23.9263
2023-05-24T10:45:53.838Z,23.8035
2023-05-24T10:46:55.876Z,23.8277
2023-05-24T10:47:57.907Z,23.9479
2023-05-24T10:48:59.931Z,23.9218
2023-05-24T10:50:02.008Z,23.8265
2023-05-24T10:51:04.210Z,23.8392
2023-05-24T10:52:06.062Z,23.7949
2023-05-24T10:53:08.119Z,23.8119
2023-05-24T10:54:10.191Z,23.8131
2023-05-24T10:55:12.241Z,23.8994
2023-05-24T10:56:14.290Z,23.9015
2023-05-24T10:57:16.350Z,23.7790
2023-05-24T10:58:18.372Z,23.8251
2023-05-24T10:59:20.416Z,23.8355
2023-05-24T11:00:33.683Z,23.9997
2023-05-24T11:01:24.593Z,24.0188
2023-05-24T11:02:26.650Z,24.0241
2023-05-24T11:03:28.923Z,24.1276
2023-05-24T11:04:30.700Z,24.1508
2023-05-24T11:05:32.751Z,24.2211
2023-05-24T11:06:34.811Z,24.2581
2023-05-24T11:07:36.854Z,24.1570
2023-05-24T11:08:38.921Z,24.1547
2023-05-24T11:09:40.944Z,24.2221
2023-05-24T11:10:43.380Z,24.3429
2023-05-24T11:11:45.023Z,24.3102
2023-05-24T11:12:47.125Z,24.2926
2023-05-24T11:13:49.153Z,24.2759
2023-05-24T11:14:51.231Z,24.1712
2023-05-24T11:15:53.281Z,24.2168
2023-05-24T11:16:55.385Z,24.2784
2023-05-24T11:17:57.522Z,24.1860
2023-05-24T11:18:59.408Z,24.1952
2023-05-24T11:20:01.511Z,24.1032
2023-05-24T11:21:04.097Z,23.9951
2023-05-24T11:22:05.561Z,23.9643
2023-05-24T11:23:07.593Z,23.9910
2023-05-24T11:24:09.768Z,23.9654
2023-05-24T11:25:11.692Z,23.9882
2023-05-24T11:26:13.775Z,23.9812
2023-05-24T11:27:15.810Z,23.9886
2023-05-24T11:28:17.900Z,24.0151
2023-05-24T11:29:19.911Z,23.9879
2023-05-24T11:30:21.935Z,24.0814
2023-05-24T11:31:24.035Z,24.0939
2023-05-24T11:32:26.151Z,24.0683
2023-05-24T11:33:28.097Z,23.9886
2023-05-24T11:34:30.116Z,23.9604
2023-05-24T11:35:32.197Z,23.9633
2023-05-24T11:36:34.235Z,23.9477
2023-05-24T11:37:46.135Z,23.9781
2023-05-24T11:38:38.318Z,23.9875
2023-05-24T11:39:40.399Z,23.9849
2023-05-24T11:40:42.675Z,23.9902
2023-05-24T11:41:44.513Z,23.9933
2023-05-24T11:42:46.548Z,23.9997
2023-05-24T11:43:48.603Z,23.9943
2023-05-24T11:44:51.017Z,24.0161
2023-05-24T11:45:52.802Z,24.0311
2023-05-24T11:46:54.781Z,24.0095
2023-05-24T11:47:56.854Z,24.0722
2023-05-24T11:48:58.804Z,23.9939
2023-05-24T11:50:00.847Z,23.9504
2023-05-24T11:51:02.895Z,23.9992
2023-05-24T11:52:04.966Z,24.0009
2023-05-24T11:53:07.027Z,23.9740
2023-05-24T11:54:09.052Z,23.9403
2023-05-24T11:55:11.115Z,23.9732
2023-05-24T11:56:13.136Z,23.9693
2023-05-24T11:57:15.164Z,23.9271
2023-05-24T11:58:17.253Z,23.9165
2023-05-24T11:59:19.279Z,24.0268
2023-05-24T12:00:21.526Z,24.0958
2023-05-24T12:01:23.584Z,24.1219
2023-05-24T12:02:25.443Z,24.1124
2023-05-24T12:03:27.618Z,24.1484
2023-05-24T12:04:29.742Z,24.1508
2023-05-24T12:05:31.558Z,24.1065
2023-05-24T12:06:33.597Z,24.1009
2023-05-24T12:07:35.690Z,24.1245
2023-05-24T12:08:37.678Z,24.0902
2023-05-24T12:09:39.758Z,24.0155
2023-05-24T12:10:41.991Z,24.0159
2023-05-24T12:11:43.870Z,23.9822
2023-05-24T12:12:46.335Z,23.9690
2023-05-24T12:13:47.917Z,23.9715
2023-05-24T12:14:49.932Z,23.9594
2023-05-24T12:15:54.897Z,23.9740
2023-05-24T12:16:54.043Z,23.9861
2023-05-24T12:17:56.719Z,23.9680
2023-05-24T12:19:05.348Z,23.9497
2023-05-24T12:20:00.315Z,23.9310
2023-05-24T12:21:02.237Z,23.9769
2023-05-24T12:22:04.284Z,23.9921
2023-05-24T12:23:06.317Z,23.9789
2023-05-24T12:24:08.418Z,24.0574
2023-05-24T12:25:10.465Z,24.0927
2023-05-24T12:26:12.448Z,24.1245
2023-05-24T12:27:14.529Z,24.0826
2023-05-24T12:28:16.554Z,24.0311
2023-05-24T12:29:18.805Z,24.0420
2023-05-24T12:30:20.642Z,24.0785
2023-05-24T12:31:22.697Z,24.0900
2023-05-24T12:32:24.791Z,24.1159
2023-05-24T12:33:26.781Z,24.0900
2023-05-24T12:34:28.847Z,24.0691
2023-05-24T12:35:30.884Z,24.0212
2023-05-24T12:36:32.941Z,24.0095
2023-05-24T12:37:34.950Z,23.9949
2023-05-24T12:38:37.009Z,24.0101
2023-05-24T12:39:39.141Z,24.0457
2023-05-24T12:40:41.354Z,24.0235
2023-05-24T12:41:43.239Z,24.0132
2023-05-24T12:42:45.335Z,24.0703
2023-05-24T12:43:47.314Z,24.0570
2023-05-24T12:44:49.377Z,24.0346
2023-05-24T12:45:53.604Z,23.9855
2023-05-24T12:46:53.539Z,23.9894
2023-05-24T12:47:55.526Z,23.9417
2023-05-24T12:48:57.545Z,23.9475
2023-05-24T12:49:59.732Z,23.9672
2023-05-24T12:51:01.697Z,23.9551
2023-05-24T12:52:03.693Z,23.9600
2023-05-24T12:53:05.745Z,23.9896
2023-05-24T12:54:07.822Z,24.0362
2023-05-24T12:55:09.985Z,24.0136
2023-05-24T12:56:11.949Z,23.9992
2023-05-24T12:57:13.981Z,24.0118
2023-05-24T12:58:15.986Z,23.9828
2023-05-24T12:59:18.062Z,23.9625
2023-05-24T13:00:20.055Z,23.9723
2023-05-24T13:01:22.366Z,24.0013
2023-05-24T13:02:24.176Z,24.0237
2023-05-24T13:03:26.189Z,23.9709
2023-05-24T13:04:28.264Z,23.9972
2023-05-24T13:05:30.403Z,23.9822
2023-05-24T13:06:32.334Z,23.9465
2023-05-24T13:07:34.454Z,23.9910
2023-05-24T13:08:38.116Z,24.0442
2023-05-24T13:09:38.506Z,24.0707
2023-05-24T13:10:40.654Z,24.0235
2023-05-24T13:11:42.592Z,24.0095
2023-05-24T13:12:44.619Z,24.0586
2023-05-24T13:13:47.133Z,24.1034
2023-05-24T13:14:50.679Z,24.0654
2023-05-24T13:15:50.759Z,24.0407
2023-05-24T13:16:53.073Z,24.0251
2023-05-24T13:17:54.998Z,24.0329
2023-05-24T13:18:56.924Z,24.0697
2023-05-24T13:20:01.726Z,24.0399
2023-05-24T13:21:00.993Z,24.0360
2023-05-24T13:22:03.062Z,24.0976
2023-05-24T13:23:05.111Z,24.0469
2023-05-24T13:24:07.102Z,24.0007
2023-05-24T13:25:09.157Z,24.0321
2023-05-24T13:26:11.239Z,24.0627
2023-05-24T13:27:13.289Z,24.1108
2023-05-24T13:28:15.324Z,24.0520
2023-05-24T13:29:34.181Z,24.0802
2023-05-24T13:30:19.418Z,24.0730
2023-05-24T13:31:21.488Z,24.0393
2023-05-24T13:32:23.574Z,24.0492
2023-05-24T13:33:25.530Z,24.0192
2023-05-24T13:34:27.582Z,24.0202
2023-05-24T13:35:29.620Z,24.0013
2023-05-24T13:36:31.672Z,24.0070
2023-05-24T13:37:33.754Z,24.0151
2023-05-24T13:38:35.769Z,24.0683
2023-05-24T13:39:37.835Z,24.0555
2023-05-24T13:40:41.777Z,24.1198
2023-05-24T13:41:42.174Z,24.1373
2023-05-24T13:42:44.017Z,24.1666
2023-05-24T13:43:45.985Z,24.1621
2023-05-24T13:44:48.032Z,24.1673
2023-05-24T13:45:50.070Z,24.1498
2023-05-24T13:46:52.165Z,24.1128
2023-05-24T13:47:54.216Z,24.1802
2023-05-24T13:48:56.247Z,24.1547
2023-05-24T13:49:58.241Z,24.1664
2023-05-24T13:51:00.301Z,24.1410
2023-05-24T13:52:02.389Z,24.0989
2023-05-24T13:53:04.414Z,24.0929
2023-05-24T13:54:06.437Z,24.0691
2023-05-24T13:55:08.530Z,24.0672
2023-05-24T13:56:10.516Z,24.1675
2023-05-24T13:57:12.652Z,24.1262
2023-05-24T13:58:14.602Z,24.2081
2023-05-24T13:59:16.735Z,24.3597
2023-05-24T14:00:18.737Z,24.3423
2023-05-24T14:01:20.932Z,24.2673
2023-05-24T14:02:22.848Z,24.1810
2023-05-24T14:03:24.835Z,24.1315
2023-05-24T14:04:26.884Z,24.1336
2023-05-24T14:05:28.969Z,24.1309
2023-05-24T14:06:30.987Z,24.0662
2023-05-24T14:07:33.087Z,24.0485
2023-05-24T14:08:35.097Z,24.1574
2023-05-24T14:09:37.217Z,24.1116
2023-05-24T14:10:39.220Z,23.9958
2023-05-24T14:11:41.348Z,23.9690
2023-05-24T14:12:43.287Z,23.9960
2023-05-24T14:15:49.520Z,24.0070
2023-05-24T14:16:51.453Z,23.9962
2023-05-24T14:17:53.605Z,23.9534
2023-05-24T14:18:55.553Z,23.9625
2023-05-24T14:19:57.750Z,24.0066
2023-05-24T14:20:59.655Z,24.0118
2023-05-24T14:22:01.731Z,23.9986
2023-05-24T14:23:03.932Z,23.9824
2023-05-24T14:24:05.809Z,24.0678
2023-05-24T14:25:07.825Z,24.0623
2023-05-24T14:26:09.935Z,24.1508
2023-05-24T14:27:11.907Z,24.1100
2023-05-24T14:28:14.016Z,24.0798
2023-05-24T14:29:16.084Z,24.0459
2023-05-24T14:30:18.125Z,24.0707
2023-05-24T14:31:20.139Z,24.1137
2023-05-24T14:32:22.386Z,24.1182
2023-05-24T14:33:24.180Z,24.0993
2023-05-24T14:34:26.280Z,24.0775
2023-05-24T14:35:28.313Z,24.0463
2023-05-24T14:36:30.407Z,24.0239
2023-05-24T14:37:32.457Z,23.9729
2023-05-24T14:38:34.418Z,23.9836
2023-05-24T14:39:36.477Z,23.9557
2023-05-24T14:40:39.051Z,23.9949
2023-05-24T14:41:40.585Z,24.0566
2023-05-24T14:42:42.605Z,24.0664
2023-05-24T14:43:44.663Z,24.1077
2023-05-24T14:44:46.716Z,24.0843
2023-05-24T14:45:49.094Z,24.0787
2023-05-24T14:46:52.007Z,24.0350
2023-05-24T14:47:52.909Z,24.0631
2023-05-24T14:48:54.919Z,24.0982
2023-05-24T14:49:56.923Z,23.9801
2023-05-24T14:50:58.993Z,23.8857
2023-05-24T14:52:01.089Z,23.9871
2023-05-24T14:53:03.093Z,24.0077
2023-05-24T14:54:05.180Z,24.0399
2023-05-24T14:55:07.215Z,24.0898
2023-05-24T14:56:09.314Z,24.1028
2023-05-24T14:57:11.313Z,24.1884
2023-05-24T14:58:13.346Z,24.0921
2023-05-24T14:59:15.369Z,24.1258
2023-05-24T15:00:19.784Z,24.1420
2023-05-24T15:01:19.526Z,24.0956
2023-05-24T15:02:21.673Z,24.0660
2023-05-24T15:03:23.717Z,24.1048
2023-05-24T15:04:25.617Z,24.1163
2023-05-24T15:05:27.660Z,24.0911
2023-05-24T15:06:29.729Z,24.1671
2023-05-24T15:07:31.797Z,24.1367
2023-05-24T15:08:33.873Z,24.1636
2023-05-24T15:09:35.826Z,24.1654
2023-05-24T15:10:37.939Z,24.1812
2023-05-24T15:11:40.035Z,24.1819
2023-05-24T15:12:42.057Z,24.0837
2023-05-24T15:13:44.056Z,24.1469
2023-05-24T15:14:46.089Z,24.2059
2023-05-24T15:15:48.130Z,24.2129
2023-05-24T15:16:50.232Z,24.2153
2023-05-24T15:17:52.290Z,24.1272
2023-05-24T15:18:54.283Z,24.0011
2023-05-24T15:19:56.337Z,23.9352
2023-05-24T15:20:58.422Z,23.9773
2023-05-24T15:22:00.534Z,24.0296
2023-05-24T15:23:02.439Z,24.0284
2023-05-24T15:24:04.517Z,24.1527
2023-05-24T15:25:06.570Z,24.1139
2023-05-24T15:26:08.636Z,24.1580
2023-05-24T15:27:10.741Z,24.2279
2023-05-24T15:28:12.806Z,24.3104
2023-05-24T15:29:14.736Z,24.3277
2023-05-24T15:30:16.827Z,24.3626
2023-05-24T15:31:18.867Z,24.2363
2023-05-24T15:32:20.864Z,24.2118
2023-05-24T15:33:23.005Z,24.1369
2023-05-24T15:34:24.976Z,23.9719
2023-05-24T15:35:27.020Z,23.9339
2023-05-24T15:36:29.087Z,23.8785
2023-05-24T15:37:31.151Z,23.8776
2023-05-24T15:38:33.164Z,23.9462
2023-05-24T15:39:35.204Z,24.0122
2023-05-24T15:40:37.247Z,24.0259
2023-05-24T15:41:39.336Z,24.0826
2023-05-24T15:42:41.469Z,23.9742
2023-05-24T15:43:43.426Z,23.9736
2023-05-24T15:44:45.440Z,23.9035
2023-05-24T15:45:47.493Z,23.9302
2023-05-24T15:46:49.606Z,23.9417
2023-05-24T15:47:51.682Z,23.9785
2023-05-24T15:48:53.657Z,24.0052
2023-05-24T15:49:55.754Z,23.9452
2023-05-24T15:51:25.693Z,24.0352
2023-05-24T15:52:04.329Z,24.0132
2023-05-24T15:53:02.069Z,24.0251
2023-05-24T15:54:03.921Z,23.9502
2023-05-24T15:55:05.944Z,23.9586
2023-05-24T15:56:08.064Z,24.1180
2023-05-24T15:57:10.079Z,24.1722
2023-05-24T15:58:12.155Z,24.1841
2023-05-24T15:59:14.191Z,24.1418
2023-05-24T16:00:16.224Z,24.1153
2023-05-24T16:01:18.339Z,24.1942
2023-05-24T16:02:21.616Z,24.1334
2023-05-24T16:03:22.505Z,24.0284
2023-05-24T16:04:24.395Z,23.9417
2023-05-24T16:05:26.567Z,24.0455
2023-05-24T16:06:28.498Z,24.1198
2023-05-24T16:07:30.523Z,24.1580
2023-05-24T16:08:32.601Z,24.1753
2023-05-24T16:09:34.641Z,24.1872
2023-05-24T16:10:36.663Z,24.2287
2023-05-24T16:11:38.710Z,24.2067
2023-05-24T16:12:40.888Z,24.1771
2023-05-24T16:13:42.825Z,24.1512
2023-05-24T16:14:44.910Z,24.0652
2023-05-24T16:15:47.005Z,24.1229
2023-05-24T16:16:49.078Z,24.0323
2023-05-24T16:17:51.148Z,24.1303
2023-05-24T16:18:53.099Z,24.1252
2023-05-24T16:19:55.311Z,24.1365
2023-05-24T16:20:57.311Z,24.0668
2023-05-24T16:21:59.237Z,24.1313
2023-05-24T16:23:01.266Z,24.1030
2023-05-24T16:24:03.336Z,24.0533
2023-05-24T16:25:05.357Z,24.0734
2023-05-24T16:26:07.406Z,24.0625
2023-05-24T16:27:09.526Z,24.1804
2023-05-24T16:28:11.579Z,24.1706
2023-05-24T16:29:13.579Z,24.1578
2023-05-24T16:30:15.731Z,24.2018
2023-05-24T16:31:17.755Z,24.2646
2023-05-24T16:32:19.827Z,24.1348
2023-05-24T16:33:21.763Z,24.1268
2023-05-24T16:34:23.820Z,24.0149
2023-05-24T16:35:25.915Z,23.9787
2023-05-24T16:36:27.865Z,23.9877
2023-05-24T16:37:29.947Z,23.9596
2023-05-24T16:38:33.220Z,23.9711
2023-05-24T16:39:34.105Z,23.9690
2023-05-24T16:40:36.106Z,23.9397
2023-05-24T16:41:38.378Z,23.9754
2023-05-24T16:42:40.182Z,23.9658
2023-05-24T16:43:42.419Z,23.9801
2023-05-24T16:44:44.572Z,23.9547
2023-05-24T16:45:46.462Z,23.9619
2023-05-24T16:46:48.454Z,23.9908
2023-05-24T16:47:50.544Z,24.0280
2023-05-24T16:48:52.576Z,24.0107
2023-05-24T16:49:54.623Z,23.9705
2023-05-24T16:50:56.752Z,23.9797
2023-05-24T16:51:58.832Z,24.0005
2023-05-24T16:53:00.809Z,23.9670
2023-05-24T16:54:02.793Z,23.9958
2023-05-24T16:55:04.900Z,24.0596
2023-05-24T16:56:07.022Z,24.1545
2023-05-24T16:57:09.243Z,24.1890
2023-05-24T16:58:11.002Z,24.1588
2023-05-24T16:59:13.273Z,23.9808
2023-05-24T17:00:15.106Z,23.8341
2023-05-24T17:01:17.191Z,23.6318
2023-05-24T17:02:19.189Z,23.7308
2023-05-24T17:03:21.330Z,23.6463